createdAt,value
2023-01-28T00:03:28.601Z,-0.40
2023-01-28T00:13:31.802Z,-0.40
2023-01-28T00:23:36.245Z,-0.40
2023-01-28T00:33:38.237Z,-0.40
2023-01-28T00:43:41.011Z,-0.40
2023-01-28T00:53:44.759Z,-0.40
2023-01-28T01:03:47.490Z,-0.40
2023-01-28T01:13:57.355Z,-0.50
2023-01-28T01:23:59.708Z,-0.50
2023-01-28T01:34:01.657Z,-0.60
2023-01-28T01:44:05.764Z,-0.60
2023-01-28T01:54:08.281Z,-0.60
2023-01-28T02:04:19.763Z,-0.60
2023-01-28T02:14:30.975Z,-0.60
2023-01-28T02:24:51.258Z,-0.60
2023-01-28T02:35:30.581Z,-0.60
2023-01-28T02:45:34.198Z,-0.60
2023-01-28T02:55:40.330Z,-0.50
2023-01-28T03:05:56.535Z,-0.50
2023-01-28T03:15:58.493Z,-0.60
2023-01-28T03:26:03.606Z,-0.60
2023-01-28T03:36:07.852Z,-0.70
2023-01-28T03:46:22.692Z,-0.70
2023-01-28T03:56:24.600Z,-0.80
2023-01-28T04:06:29.526Z,-0.70
2023-01-28T04:16:51.702Z,-0.80
2023-01-28T04:26:56.175Z,-0.80
2023-01-28T04:36:58.488Z,-0.70
2023-01-28T04:47:23.491Z,-0.80
2023-01-28T04:57:38.158Z,-0.80
2023-01-28T05:07:42.795Z,-0.80
2023-01-28T05:17:46.142Z,-0.70
2023-01-28T05:27:51.719Z,-0.80
2023-01-28T05:37:53.721Z,-0.80
2023-01-28T05:47:55.826Z,-0.80
2023-01-28T05:58:13.738Z,-0.80
2023-01-28T06:08:15.903Z,-0.80
2023-01-28T06:18:18.073Z,-0.90
2023-01-28T06:28:20.421Z,-0.80
2023-01-28T06:38:22.319Z,-0.90
2023-01-28T06:48:25.176Z,-0.90
2023-01-28T06:58:33.338Z,-0.90
2023-01-28T07:08:35.279Z,-0.80
2023-01-28T07:18:37.180Z,-0.80
2023-01-28T07:28:39.078Z,-0.80
2023-01-28T07:38:40.927Z,-0.80
2023-01-28T07:48:42.666Z,-0.80
2023-01-28T07:58:44.481Z,-0.70
2023-01-28T08:08:49.480Z,-0.70
2023-01-28T08:18:52.477Z,-0.60
2023-01-28T08:28:54.908Z,-0.60
2023-01-28T08:38:56.679Z,-0.60
2023-01-28T08:48:58.445Z,-0.50
2023-01-28T08:59:00.342Z,-0.40
2023-01-28T09:09:02.776Z,-0.30
2023-01-28T09:19:04.637Z,-0.20
2023-01-28T09:29:06.493Z,-0.20
2023-01-28T09:39:08.378Z,0.00
2023-01-28T09:49:39.807Z,0.10
2023-01-28T09:59:41.769Z,0.10
2023-01-28T10:09:46.684Z,0.20
2023-01-28T10:20:06.119Z,0.10
2023-01-28T10:30:22.107Z,0.30
2023-01-28T10:40:24.062Z,0.60
2023-01-28T11:36:21.280Z,0.40
2023-01-28T11:47:02.087Z,0.50
2023-01-28T12:31:50.124Z,0.80
2023-01-28T12:42:41.920Z,0.90
2023-01-28T12:52:50.946Z,0.90
2023-01-28T13:03:16.468Z,1.00
2023-01-28T13:13:32.260Z,0.90
2023-01-28T13:23:43.458Z,0.90
2023-01-28T13:34:02.185Z,0.90
2023-01-28T13:44:04.027Z,1.00
2023-01-28T13:54:19.103Z,0.80
2023-01-28T14:04:50.295Z,0.80
2023-01-28T14:15:26.417Z,0.90
2023-01-28T14:25:34.039Z,1.00
2023-01-28T14:35:39.536Z,0.60
2023-01-28T14:46:11.781Z,0.70
2023-01-28T14:56:22.030Z,0.80
2023-01-28T15:06:30.391Z,0.60
2023-01-28T15:16:33.938Z,0.50
2023-01-28T15:26:36.988Z,0.40
2023-01-28T15:36:44.140Z,0.40
2023-01-28T15:46:46.129Z,0.30
2023-01-28T15:56:47.964Z,0.30
2023-01-28T16:06:50.524Z,0.20
2023-01-28T16:16:54.169Z,0.20
2023-01-28T16:27:01.132Z,0.10
2023-01-28T16:37:08.917Z,0.10
2023-01-28T16:47:10.904Z,-0.10
2023-01-28T16:57:18.669Z,-0.10
2023-01-28T17:07:20.526Z,-0.10
2023-01-28T17:17:22.468Z,-0.20
2023-01-28T17:27:24.316Z,-0.20
2023-01-28T17:37:26.154Z,-0.10
2023-01-28T17:47:28.050Z,-0.10
2023-01-28T17:57:31.226Z,-0.20
2023-01-28T18:07:33.211Z,-0.30
2023-01-28T18:17:35.494Z,-0.30
2023-01-28T18:27:38.781Z,-0.20
2023-01-28T18:37:40.746Z,-0.20
2023-01-28T18:47:43.374Z,-0.20
2023-01-28T18:57:45.301Z,-0.10
2023-01-28T19:07:48.210Z,-0.10
2023-01-28T19:17:50.589Z,-0.10
2023-01-28T19:28:13.907Z,-0.30
2023-01-28T19:38:16.284Z,-0.30
2023-01-28T19:48:18.026Z,-0.30
2023-01-28T19:58:19.826Z,-0.30
2023-01-28T20:08:22.785Z,-0.30
2023-01-28T20:18:25.950Z,-0.30
2023-01-28T20:28:30.743Z,-0.40
2023-01-28T20:38:38.109Z,-0.50
2023-01-28T20:48:39.949Z,-0.50
2023-01-28T20:58:41.850Z,-0.60
2023-01-28T21:08:44.304Z,-0.70
2023-01-28T21:18:46.446Z,-0.70
2023-01-28T21:28:48.302Z,-0.80
2023-01-28T21:38:55.970Z,-0.80
2023-01-28T21:48:59.985Z,-0.80
2023-01-28T21:59:02.007Z,-0.90
2023-01-28T22:09:04.202Z,-1.20
2023-01-28T22:19:06.303Z,-1.20
2023-01-28T22:29:09.123Z,-1.30
2023-01-28T22:39:16.629Z,-1.50
2023-01-28T22:49:18.486Z,-1.50
2023-01-28T22:59:20.327Z,-1.60
2023-01-28T23:09:22.325Z,-1.80
2023-01-28T23:19:24.331Z,-1.90
2023-01-28T23:29:28.357Z,-2.00
2023-01-28T23:39:30.697Z,-2.10
2023-01-28T23:49:32.828Z,-2.10
2023-01-28T23:59:34.671Z,-2.00
